We Are Winnipeg.

Screenshot by Justin Martin

Check out our new homepage below!  


  Upcoming Events

Stay tuned here for upcoming events!

  Top Controllers this Month

Ryan Miltenberger 1350654
02:36

Todd Blanchette 1386032
01:37

1480837
01:21

  Online Controllers

No controllers online.

  Weather

CYWG - Winnipeg / James Armstrong Richardson International Airport  VFR
CYWG 020400Z 18025G32KT 15SM OVC240 M11/M16 A2982 RMK CI8 PRESFR SLP121

CYXE - Saskatoon John G. Diefenbaker International Airport  VFR
CYXE 020400Z 19007KT 15SM SCT160 M03/M05 A2949 RMK AC4 SLP019

CYQT - Thunder Bay Airport  VFR
CYQT 020400Z 30003KT 15SM OVC100 M16/M21 A3022 RMK AC8 SLP257

CYQR - Regina International Airport  VFR
CYQR 020400Z 24014KT 15SM SCT150 OVC200 02/M01 A2962 RMK AC3CI5 SLP064

CYMJ - Moose Jaw Air Vice Marshal C. M. McEwen Airport  VFR
CYMJ 012333Z 23018G24KT 15SM OVC240 03/M01 A2973 RMK CI8 LAST OBS/NEXT 021000 UTC SLP097

CYPG - Portage-la-Prairie / Southport Airport  VFR
CYPG 020000Z CCA 16015G20KT 15SM FEW020 FEW080 BKN240 M10/M15 A2998 RMK SC1AC2CI4 PRESFR LAST OBS/NEXT 021200 UTC SLP180